Latest Coastal Weather Observations for Rundle Island

IDQ60701

Issued at 2:02 pm EST Friday 29 July 2016 (issued every 10 minutes, with the page automatically refreshed every 10 minutes)

About coastal observations | Map of coastal stations | Coastal observations for QLD | Marine services | Other Formats
Station Details ID: 039322 Name: RUNDLE ISLAND Lat: -23.53 Lon: 151.28 Height: 19.8 m
Data from the previous 72 hours. | See also: Recent months at Rundle Island
Date/Time
EST
Temp
°C
Wind Pressure Rain since
9am
mm
Weather Cloud Vis
km
Sea
Height
m
Swell
Dir  Spd
kts
Gust
kts
hPa Trend Height
m
Period
s
Dir
29/02:00pm 20.5 SE 14 16 1019.0 - - - - - - - - -
29/01:30pm 20.5 SE 16 18 1019.3 - - - - - - - - -
29/01:00pm 20.4 SE 15 16 1019.9 - - - - - - - - -
29/12:30pm 20.1 SE 14 15 1020.1 - - - - - - - - -
29/12:00pm 19.9 SE 14 16 1020.7 - - - - - - - - -
29/11:30am 19.7 SSE 13 15 1021.3 - - - - - - - - -
29/11:00am 19.3 SSE 16 18 1021.7 - - - - - - - - -
29/10:30am 19.4 S 14 17 1022.1 - - - - - - - - -
29/10:00am 18.8 S 14 17 1022.2 - - - - - - - - -
29/09:30am 18.4 S 14 16 1022.4 - - - - - - - - -
29/09:00am 17.8 S 12 14 1022.4 - - - - - - - - -
29/08:30am 17.4 S 13 16 1022.2 - - - - - - - - -
29/08:00am 16.8 S 13 14 1021.9 - - - - - - - - -
29/07:30am 16.7 SSW 13 15 1021.8 - - - - - - - - -
29/07:00am 16.6 SSW 12 13 1021.6 - - - - - - - - -
29/06:30am 16.4 SSW 12 14 1021.2 - - - - - - - - -
29/06:00am 16.2 S 13 15 1021.0 - - - - - - - - -
29/05:30am 16.5 SSW 14 16 1020.7 - - - - - - - - -
29/05:00am 16.5 S 13 15 1020.4 - - - - - - - - -
29/04:30am 16.7 S 13 14 1020.3 - - - - - - - - -
29/04:00am 17.0 SSW 13 15 1020.1 - - - - - - - - -
29/03:30am 17.4 SSW 13 15 1020.1 - - - - - - - - -
29/03:00am 17.4 SSW 13 15 1020.2 - - - - - - - - -
29/02:30am 17.4 S 13 15 1020.5 - - - - - - - - -
29/02:00am 17.6 SSW 14 16 1020.5 - - - - - - - - -
29/01:30am 18.6 S 15 17 1020.8 - - - - - - - - -
29/01:00am 19.0 S 13 16 1021.1 - - - - - - - - -
29/12:30am 19.0 S 12 14 1021.3 - - - - - - - - -
29/12:00am 19.1 SSE 11 13 1021.6 - - - - - - - - -
 
Date/Time
EST
Temp
°C
Wind Pressure Rain since
9am
mm
Weather Cloud Vis
km
Sea
Height
m
Swell
Dir  Spd
kts
Gust
kts
hPa Trend Height
m
Period
s
Dir
28/11:30pm 19.4 SSE 12 15 1021.6 - - - - - - - - -
28/11:00pm 19.5 SSE 12 13 1021.8 - - - - - - - - -
28/10:30pm 19.7 SE 14 16 1022.0 - - - - - - - - -
28/10:00pm 19.8 SSE 13 16 1022.3 - - - - - - - - -
28/09:30pm 19.9 SSE 13 15 1022.3 - - - - - - - - -
28/09:00pm 20.1 SE 12 15 1022.3 - - - - - - - - -
28/08:30pm 20.1 SE 13 15 1022.2 - - - - - - - - -
28/08:00pm 20.1 SE 14 16 1022.0 - - - - - - - - -
28/07:30pm 20.0 SE 14 16 1021.9 - - - - - - - - -
28/07:00pm 20.0 SE 14 16 1021.8 - - - - - - - - -
28/06:30pm 19.9 SE 14 16 1021.5 - - - - - - - - -
28/06:00pm 19.7 SE 14 15 1021.3 - - - - - - - - -
28/05:30pm 19.7 SE 14 16 1021.0 - - - - - - - - -
28/05:00pm 19.6 SE 12 14 1020.7 - - - - - - - - -
28/04:30pm 19.1 SE 10 12 1020.7 - - - - - - - - -
28/04:00pm 18.9 SE 10 13 1020.5 - - - - - - - - -
28/03:30pm 19.1 SE 10 12 1020.5 - - - - - - - - -
28/03:00pm 19.1 SE 9 12 1020.5 - - - - - - - - -
28/02:30pm 18.8 SE 11 13 1020.7 - - - - - - - - -
28/02:00pm 18.8 SE 11 13 1020.7 - - - - - - - - -
28/01:30pm 18.8 SSE 12 14 1021.0 - - - - - - - - -
28/01:00pm 18.6 SSE 11 14 1021.4 - - - - - - - - -
28/12:30pm 18.3 SSE 12 16 1021.8 - - - - - - - - -
28/12:00pm 17.9 SSE 11 14 1022.3 - - - - - - - - -
28/11:30am 17.8 SSE 14 17 1022.7 - - - - - - - - -
28/11:00am 17.4 S 15 19 1023.0 - - - - - - - - -
28/10:30am 17.1 SSE 19 23 1023.2 - - - - - - - - -
28/10:00am 17.4 S 18 21 1023.5 - - - - - - - - -
28/09:30am 17.2 S 17 20 1023.7 - - - - - - - - -
28/09:00am 17.2 SSE 18 20 1023.6 - - - - - - - - -
28/08:30am 17.3 SSE 20 22 1023.3 - - - - - - - - -
28/08:00am 17.4 SSE 22 25 1023.3 - - - - - - - - -
28/07:30am 17.5 SSE 21 25 1022.8 - - - - - - - - -
28/07:00am 17.7 SSE 20 23 1022.3 - - - - - - - - -
28/06:30am 17.7 SSE 18 22 1021.9 - - - - - - - - -
28/06:00am 17.8 SSE 16 19 1021.7 - - - - - - - - -
28/05:30am 18.0 SSE 17 20 1021.3 - - - - - - - - -
28/05:00am 18.3 SSE 17 19 1021.3 - - - - - - - - -
28/04:30am 18.5 SSE 18 22 1020.9 - - - - - - - - -
28/04:00am 18.7 SSE 16 17 1020.8 - - - - - - - - -
28/03:30am 19.0 S 15 18 1021.0 - - - - - - - - -
28/03:00am 18.3 S 10 12 1021.2 - - - - - - - - -
28/02:30am 18.3 S 9 12 1021.2 - - - - - - - - -
28/02:00am 18.6 S 11 13 1021.2 - - - - - - - - -
28/01:30am 19.0 S 12 14 1021.3 - - - - - - - - -
28/01:00am 18.9 S 14 16 1021.4 - - - - - - - - -
28/12:30am 19.3 SSW 15 18 1021.5 - - - - - - - - -
28/12:00am 19.0 S 13 16 1021.4 - - - - - - - - -
 
Date/Time
EST
Temp
°C
Wind Pressure Rain since
9am
mm
Weather Cloud Vis
km
Sea
Height
m
Swell
Dir  Spd
kts
Gust
kts
hPa Trend Height
m
Period
s
Dir
27/11:30pm 19.0 SSW 15 17 1021.1 - - - - - - - - -
27/11:00pm 18.9 SSW 14 16 1021.1 - - - - - - - - -
27/10:30pm 18.8 SW 8 10 1021.1 - - - - - - - - -
27/10:00pm 18.9 SSW 7 9 1020.8 - - - - - - - - -
27/09:30pm 19.4 SW 5 6 1020.8 - - - - - - - - -
27/09:00pm 19.9 SSW 6 8 1020.5 - - - - - - - - -
27/08:30pm 20.0 SSW 6 8 1020.2 - - - - - - - - -
27/08:00pm 19.5 CALM 0 0 1020.1 - - - - - - - - -
27/07:30pm 20.0 CALM 0 0 1019.5 - - - - - - - - -
27/07:00pm 20.1 CALM 0 1 1019.1 - - - - - - - - -
27/06:30pm 20.3 N 3 3 1018.7 - - - - - - - - -
27/06:00pm 20.4 N 4 5 1018.4 - - - - - - - - -
27/05:30pm 20.4 N 3 4 1018.1 - - - - - - - - -
27/05:00pm 20.4 NNE 5 7 1017.8 - - - - - - - - -
27/04:30pm 20.4 NE 5 6 1017.4 - - - - - - - - -
27/04:00pm 20.7 NNE 7 8 1016.8 - - - - - - - - -
27/03:30pm 21.7 NNE 5 6 1016.7 - - - - - - - - -
27/03:00pm 20.9 NNE 5 6 1016.8 - - - - - - - - -
27/02:30pm 20.4 N 4 5 1016.9 - - - - - - - - -
27/02:00pm 20.9 NNE 5 6 1017.0 - - - - - - - - -
27/01:30pm 21.1 NNE 4 6 1017.3 - - - - - - - - -
27/01:00pm 21.1 ESE 5 6 1017.4 - - - - - - - - -
27/12:30pm 20.5 E 6 8 1017.6 - - - - - - - - -
27/12:00pm 20.5 ESE 6 7 1018.1 - - - - - - - - -
27/11:30am 19.9 SE 6 7 1018.5 - - - - - - - - -
27/11:00am 19.6 SE 6 7 1018.9 - - - - - - - - -
27/10:30am 19.5 SE 6 7 1019.5 - - - - - - - - -
27/10:00am 19.5 S 7 8 1019.9 - - - - - - - - -
27/09:30am 19.1 S 9 10 1020.0 - - - - - - - - -
27/09:00am 18.4 SSW 9 10 1020.1 - - - - - - - - -
27/08:30am 18.2 SSW 10 12 1019.8 - - - - - - - - -
27/08:00am 17.9 SSW 7 9 1019.3 - - - - - - - - -
27/07:30am 17.5 SSW 10 11 1019.1 - - - - - - - - -
27/07:00am 17.4 SSW 10 11 1018.8 - - - - - - - - -
27/06:30am 18.2 S 7 8 1018.5 - - - - - - - - -
27/06:00am 18.3 SSW 2 3 1018.1 - - - - - - - - -
27/05:30am 18.0 SW 4 5 1018.1 - - - - - - - - -
27/05:00am 18.0 SW 5 6 1018.1 - - - - - - - - -
27/04:30am 18.1 SW 5 6 1018.0 - - - - - - - - -
27/04:00am 18.3 SSW 6 7 1018.1 - - - - - - - - -
27/03:30am 18.8 SSW 6 7 1018.1 - - - - - - - - -
27/03:00am 18.9 SSW 5 6 1018.1 - - - - - - - - -
27/02:30am 18.8 S 5 5 1018.2 - - - - - - - - -
27/02:00am 18.8 S 5 6 1018.2 - - - - - - - - -
27/01:30am 18.9 S 6 6 1018.4 - - - - - - - - -
27/01:00am 18.9 S 6 7 1018.5 - - - - - - - - -
27/12:30am 18.8 SSW 8 8 1018.6 - - - - - - - - -
27/12:00am 20.0 SSE 6 6 1018.5 - - - - - - - - -
 
Date/Time
EST
Temp
°C
Wind Pressure Rain since
9am
mm
Weather Cloud Vis
km
Sea
Height
m
Swell
Dir  Spd
kts
Gust
kts
hPa Trend Height
m
Period
s
Dir
26/11:30pm 19.9 SSE 5 6 1018.5 - - - - - - - - -
26/11:00pm 19.5 SSE 4 5 1018.5 - - - - - - - - -
26/10:30pm 20.1 SE 4 5 1018.6 - - - - - - - - -
26/10:00pm 20.1 ESE 4 4 1018.6 - - - - - - - - -
26/09:30pm 20.1 E 4 5 1018.4 - - - - - - - - -
26/09:00pm 20.2 ENE 7 7 1018.1 - - - - - - - - -
26/08:30pm 20.3 ENE 7 9 1017.9 - - - - - - - - -
26/08:00pm 20.3 ENE 8 9 1017.8 - - - - - - - - -
26/07:30pm 20.3 ENE 8 9 1017.7 - - - - - - - - -
26/07:00pm 20.3 ENE 9 10 1017.3 - - - - - - - - -
26/06:30pm 20.3 ENE 9 11 1016.9 - - - - - - - - -
26/06:00pm 20.3 ENE 11 12 1016.6 - - - - - - - - -
26/05:30pm 20.3 ENE 10 12 1016.4 - - - - - - - - -
26/05:00pm 20.4 E 9 10 1016.4 - - - - - - - - -
26/04:30pm 20.4 E 9 10 1016.2 - - - - - - - - -
26/04:00pm 20.4 E 9 11 1016.1 - - - - - - - - -
26/03:30pm 20.5 E 8 9 1016.1 - - - - - - - - -
26/03:00pm 20.6 ESE 9 9 1016.2 - - - - - - - - -
26/02:30pm 20.4 SE 8 9 1016.5 - - - - - - - - -

Other Formats:

Comma delimited format used in spreadsheet applications
http://www.bom.gov.au/fwo/IDQ60701/IDQ60701.94378.axf

JavaScript Object Notation format (JSON) in row-major order
http://www.bom.gov.au/fwo/IDQ60701/IDQ60701.94378.json